createdAt,value
2023-03-22T00:01:31.866Z,9.47
2023-03-22T00:04:07.043Z,9.50
2023-03-22T00:06:38.283Z,9.55
2023-03-22T00:09:07.498Z,9.58
2023-03-22T00:11:35.853Z,9.51
2023-03-22T00:14:04.434Z,9.46
2023-03-22T00:16:35.564Z,9.38
2023-03-22T00:19:08.583Z,9.36
2023-03-22T00:21:36.480Z,9.31
2023-03-22T00:24:04.740Z,9.37
2023-03-22T00:26:32.672Z,9.29
2023-03-22T00:29:01.570Z,9.31
2023-03-22T00:31:29.558Z,9.24
2023-03-22T00:33:59.338Z,9.22
2023-03-22T00:36:31.266Z,9.26
2023-03-22T00:39:01.413Z,9.24
2023-03-22T00:41:32.030Z,9.24
2023-03-22T00:44:00.401Z,9.20
2023-03-22T00:46:28.615Z,9.18
2023-03-22T00:48:57.393Z,9.17
2023-03-22T00:51:31.364Z,9.15
2023-03-22T00:54:01.519Z,9.11
2023-03-22T00:56:30.675Z,9.18
2023-03-22T00:58:59.945Z,9.16
2023-03-22T01:01:29.216Z,9.20
2023-03-22T01:04:06.057Z,9.14
2023-03-22T01:06:38.598Z,9.16
2023-03-22T01:09:09.954Z,9.12
2023-03-22T01:11:37.917Z,9.14
2023-03-22T01:14:10.486Z,9.12
2023-03-22T01:16:42.762Z,9.12
2023-03-22T01:19:13.744Z,9.12
2023-03-22T01:21:45.485Z,9.08
2023-03-22T01:24:16.225Z,9.11
2023-03-22T01:26:46.922Z,9.14
2023-03-22T01:29:15.108Z,9.07
2023-03-22T01:31:43.660Z,9.05
2023-03-22T01:34:11.715Z,9.00
2023-03-22T01:36:41.805Z,9.06
2023-03-22T01:39:14.419Z,9.01
2023-03-22T01:41:45.128Z,9.03
2023-03-22T01:44:17.001Z,8.99
2023-03-22T01:46:50.856Z,9.00
2023-03-22T01:49:24.659Z,8.97
2023-03-22T01:51:55.975Z,9.04
2023-03-22T01:54:36.169Z,8.97
2023-03-22T01:57:04.888Z,8.98
2023-03-22T01:59:33.818Z,8.97
2023-03-22T02:02:02.992Z,8.98
2023-03-22T02:04:38.330Z,8.91
2023-03-22T02:07:16.048Z,8.96
2023-03-22T02:09:50.022Z,8.97
2023-03-22T02:12:44.465Z,8.96
2023-03-22T02:15:24.257Z,8.94
2023-03-22T02:18:20.503Z,8.92
2023-03-22T02:22:02.626Z,8.93
2023-03-22T02:25:05.073Z,8.92
2023-03-22T02:28:33.383Z,8.94
2023-03-22T02:31:41.184Z,8.86
2023-03-22T02:34:55.768Z,8.86
2023-03-22T02:38:02.325Z,8.86
2023-03-22T02:40:44.210Z,8.86
2023-03-22T02:43:34.676Z,8.81
2023-03-22T02:46:10.991Z,8.81
2023-03-22T02:48:52.692Z,8.88
2023-03-22T02:51:30.769Z,8.82
2023-03-22T02:54:07.907Z,8.78
2023-03-22T02:56:43.853Z,8.71
2023-03-22T02:59:14.619Z,8.69
2023-03-22T03:01:49.591Z,8.65
2023-03-22T03:04:23.464Z,8.59
2023-03-22T03:07:01.875Z,8.54
2023-03-22T03:09:33.341Z,8.58
2023-03-22T03:12:19.095Z,8.61
2023-03-22T03:14:48.035Z,8.58
2023-03-22T03:17:48.943Z,8.51
2023-03-22T03:20:34.147Z,8.40
2023-03-22T03:23:20.530Z,8.42
2023-03-22T03:26:01.817Z,8.48
2023-03-22T03:28:43.884Z,8.54
2023-03-22T03:31:33.183Z,8.65
2023-03-22T03:34:14.733Z,8.66
2023-03-22T03:36:51.443Z,8.76
2023-03-22T03:39:23.009Z,8.77
2023-03-22T03:41:54.050Z,8.71
2023-03-22T03:44:24.428Z,8.69
2023-03-22T03:46:55.377Z,8.74
2023-03-22T03:49:27.135Z,8.72
2023-03-22T03:51:56.809Z,8.76
2023-03-22T03:54:25.070Z,8.79
2023-03-22T03:56:53.705Z,8.70
2023-03-22T03:59:23.099Z,8.70
2023-03-22T04:01:51.797Z,8.69
2023-03-22T04:04:26.339Z,8.71
2023-03-22T04:06:56.696Z,8.75
2023-03-22T04:09:25.315Z,8.73
2023-03-22T04:11:53.180Z,8.79
2023-03-22T04:14:21.271Z,8.74
2023-03-22T04:16:50.928Z,8.79
2023-03-22T04:19:19.369Z,8.84
2023-03-22T04:21:47.324Z,8.79
2023-03-22T04:24:16.114Z,8.79
2023-03-22T04:26:44.072Z,8.78
2023-03-22T04:29:11.999Z,8.79
2023-03-22T04:31:39.960Z,8.75
2023-03-22T04:34:09.236Z,8.68
2023-03-22T04:36:39.493Z,8.65
2023-03-22T04:39:10.459Z,8.75
2023-03-22T04:41:39.073Z,8.77
2023-03-22T04:44:09.077Z,8.70
2023-03-22T04:46:38.655Z,8.77
2023-03-22T04:49:08.195Z,8.69
2023-03-22T04:51:39.280Z,8.66
2023-03-22T04:54:14.056Z,8.67
2023-03-22T04:56:44.691Z,8.63
2023-03-22T04:59:14.716Z,8.71
2023-03-22T05:01:45.338Z,8.70
2023-03-22T05:04:19.136Z,8.66
2023-03-22T05:06:51.792Z,8.66
2023-03-22T05:09:22.801Z,8.74
2023-03-22T05:11:51.438Z,8.69
2023-03-22T05:14:19.432Z,8.77
2023-03-22T05:16:47.347Z,8.78
2023-03-22T05:19:15.280Z,8.74
2023-03-22T05:21:44.046Z,8.77
2023-03-22T05:24:13.667Z,8.72
2023-03-22T05:26:42.391Z,8.80
2023-03-22T05:29:11.155Z,8.72
2023-03-22T05:31:40.358Z,8.69
2023-03-22T05:34:09.666Z,8.70
2023-03-22T05:36:38.048Z,8.71
2023-03-22T05:39:07.282Z,8.71
2023-03-22T05:41:37.105Z,8.70
2023-03-22T05:44:06.008Z,8.69
2023-03-22T05:46:34.054Z,8.70
2023-03-22T05:49:02.053Z,8.69
2023-03-22T05:51:30.620Z,8.68
2023-03-22T05:53:58.525Z,8.71
2023-03-22T05:56:27.030Z,8.69
2023-03-22T05:58:58.197Z,8.75
2023-03-22T06:01:26.635Z,8.84
2023-03-22T06:03:54.748Z,8.84
2023-03-22T06:06:28.729Z,8.90
2023-03-22T06:09:07.297Z,8.88
2023-03-22T06:11:42.693Z,8.87
2023-03-22T06:14:14.258Z,8.95
2023-03-22T06:16:42.991Z,8.91
2023-03-22T06:19:13.119Z,8.96
2023-03-22T06:21:42.341Z,9.01
2023-03-22T06:24:11.189Z,9.05
2023-03-22T06:26:39.204Z,9.06
2023-03-22T06:29:07.099Z,9.10
2023-03-22T06:31:36.463Z,9.12
2023-03-22T06:34:05.089Z,9.08
2023-03-22T06:36:33.457Z,9.08
2023-03-22T06:39:02.769Z,9.14
2023-03-22T06:41:30.732Z,9.14
2023-03-22T06:43:58.677Z,9.14
2023-03-22T06:46:26.777Z,9.14
2023-03-22T06:48:56.273Z,9.30
2023-03-22T06:51:24.250Z,9.22
2023-03-22T06:53:54.024Z,9.22
2023-03-22T06:56:23.778Z,9.30
2023-03-22T06:58:55.292Z,9.27
2023-03-22T07:01:23.363Z,9.32
2023-03-22T07:03:52.212Z,9.30
2023-03-22T07:06:23.743Z,9.35
2023-03-22T07:08:52.195Z,9.30
2023-03-22T07:11:21.359Z,9.34
2023-03-22T07:13:49.349Z,9.38
2023-03-22T07:16:20.048Z,9.41
2023-03-22T07:18:48.285Z,9.52
2023-03-22T07:21:17.396Z,9.54
2023-03-22T07:23:47.260Z,9.72
2023-03-22T07:26:15.421Z,9.79
2023-03-22T07:28:44.553Z,9.74
2023-03-22T07:31:18.070Z,9.70
2023-03-22T07:33:46.195Z,9.70
2023-03-22T07:36:14.048Z,9.72
2023-03-22T07:38:42.751Z,9.83
2023-03-22T07:41:12.098Z,9.96
2023-03-22T07:43:52.760Z,10.04
2023-03-22T07:46:23.758Z,10.10
2023-03-22T07:48:51.823Z,10.13
2023-03-22T07:51:22.538Z,10.16
2023-03-22T07:53:50.604Z,10.26
2023-03-22T07:56:19.969Z,10.29
2023-03-22T07:58:47.939Z,10.45
2023-03-22T08:01:19.004Z,10.70
2023-03-22T08:03:52.478Z,10.61
2023-03-22T08:06:23.599Z,10.82
2023-03-22T08:08:54.817Z,11.17
2023-03-22T08:11:28.326Z,11.16
2023-03-22T08:13:59.291Z,11.13
2023-03-22T08:16:30.204Z,11.39
2023-03-22T08:19:00.443Z,11.22
2023-03-22T08:21:33.163Z,11.14
2023-03-22T08:24:03.808Z,11.28
2023-03-22T08:26:36.729Z,11.45
2023-03-22T08:29:07.578Z,11.41
2023-03-22T08:31:37.999Z,11.15
2023-03-22T08:34:10.396Z,11.22
2023-03-22T08:36:41.968Z,11.40
2023-03-22T08:39:12.891Z,11.66
2023-03-22T08:41:47.424Z,11.72
2023-03-22T08:44:20.298Z,11.65
2023-03-22T08:46:50.441Z,11.48
2023-03-22T08:49:21.411Z,11.41
2023-03-22T08:51:51.883Z,11.54
2023-03-22T08:54:25.664Z,11.82
2023-03-22T08:56:55.332Z,11.76
2023-03-22T08:59:25.090Z,11.86
2023-03-22T09:01:53.127Z,12.11
2023-03-22T09:04:21.243Z,12.15
2023-03-22T09:06:49.325Z,12.27
2023-03-22T09:09:23.048Z,12.27
2023-03-22T09:11:51.077Z,12.17
2023-03-22T09:14:20.476Z,12.52
2023-03-22T09:16:49.003Z,12.46
2023-03-22T09:19:17.788Z,12.61
2023-03-22T09:21:48.134Z,12.58
2023-03-22T09:24:21.404Z,12.79
2023-03-22T09:26:50.389Z,12.56
2023-03-22T09:29:22.527Z,12.62
2023-03-22T09:31:54.365Z,12.57
2023-03-22T09:34:22.436Z,12.77
2023-03-22T09:36:53.016Z,12.85
2023-03-22T09:39:24.186Z,13.14
2023-03-22T09:41:59.547Z,12.92
2023-03-22T09:44:41.428Z,12.99
2023-03-22T09:47:22.302Z,12.99
2023-03-22T09:50:04.006Z,13.35
2023-03-22T09:52:35.072Z,13.55
2023-03-22T09:55:08.986Z,13.52
2023-03-22T09:57:40.355Z,13.87
2023-03-22T10:00:26.927Z,14.37
2023-03-22T10:03:17.143Z,14.45
2023-03-22T10:05:56.040Z,14.80
2023-03-22T10:08:50.130Z,15.18
2023-03-22T10:11:38.528Z,14.72
2023-03-22T10:14:33.412Z,14.67
2023-03-22T10:17:11.884Z,14.69
2023-03-22T10:19:53.253Z,14.46
2023-03-22T10:22:29.689Z,14.46
2023-03-22T10:25:01.048Z,14.67
2023-03-22T10:27:32.674Z,14.94
2023-03-22T10:30:07.939Z,15.31
2023-03-22T10:32:56.645Z,15.30
2023-03-22T10:35:25.971Z,15.37
2023-03-22T10:37:57.062Z,15.52
2023-03-22T10:40:31.241Z,15.53
2023-03-22T10:43:05.480Z,15.16
2023-03-22T10:45:38.185Z,15.31
2023-03-22T10:48:18.010Z,15.80
2023-03-22T10:50:48.166Z,15.79
2023-03-22T10:53:31.822Z,15.66
2023-03-22T10:56:00.204Z,15.51
2023-03-22T10:58:32.162Z,15.40
2023-03-22T11:01:05.647Z,15.70
2023-03-22T11:03:42.665Z,15.93
2023-03-22T11:06:13.799Z,15.54
2023-03-22T11:08:46.835Z,15.50
2023-03-22T11:11:23.458Z,15.49
2023-03-22T11:13:56.469Z,15.48
2023-03-22T11:16:25.093Z,15.54
2023-03-22T11:18:57.927Z,15.40
2023-03-22T11:21:33.293Z,15.43
2023-03-22T11:24:07.348Z,15.45
2023-03-22T11:26:40.804Z,15.31
2023-03-22T11:29:17.586Z,15.22
2023-03-22T11:31:57.375Z,15.27
2023-03-22T11:34:28.892Z,15.26
2023-03-22T11:37:01.149Z,15.29
2023-03-22T11:39:30.890Z,15.49
2023-03-22T11:42:01.437Z,15.49
2023-03-22T11:44:37.891Z,15.62
2023-03-22T11:47:09.747Z,15.88
2023-03-22T11:49:46.297Z,15.93
2023-03-22T11:52:19.952Z,15.98
2023-03-22T11:54:49.351Z,16.03
2023-03-22T11:57:21.535Z,16.15
2023-03-22T11:59:58.179Z,16.69
2023-03-22T12:02:31.252Z,16.45
2023-03-22T12:05:13.070Z,15.73
2023-03-22T12:07:43.089Z,15.74
2023-03-22T12:10:18.195Z,15.69
2023-03-22T12:12:56.890Z,16.08
2023-03-22T12:15:30.686Z,16.34
2023-03-22T12:18:08.022Z,16.67
2023-03-22T12:20:48.572Z,16.42
2023-03-22T12:23:20.144Z,16.64
2023-03-22T12:25:54.420Z,16.47
2023-03-22T12:28:31.873Z,16.50
2023-03-22T12:31:03.681Z,16.55
2023-03-22T12:33:36.869Z,16.47
2023-03-22T12:36:08.979Z,16.57
2023-03-22T12:38:44.044Z,16.50
2023-03-22T12:41:16.744Z,16.64
2023-03-22T12:43:54.454Z,16.95
2023-03-22T12:46:27.748Z,16.55
2023-03-22T12:49:03.502Z,16.50
2023-03-22T12:51:33.321Z,16.52
2023-03-22T12:54:02.884Z,16.20
2023-03-22T12:56:39.611Z,16.31
2023-03-22T12:59:17.248Z,16.30
2023-03-22T13:01:53.089Z,16.75
2023-03-22T13:04:46.872Z,16.78
2023-03-22T13:07:34.257Z,16.85
2023-03-22T13:10:41.639Z,16.42
2023-03-22T13:13:15.476Z,16.56
2023-03-22T13:16:02.217Z,16.72
2023-03-22T13:18:42.487Z,16.52
2023-03-22T13:21:17.873Z,16.46
2023-03-22T13:24:03.941Z,16.39
2023-03-22T13:26:45.562Z,16.63
2023-03-22T13:29:20.046Z,16.96
2023-03-22T13:31:58.537Z,16.66
2023-03-22T13:34:39.267Z,16.74
2023-03-22T13:37:25.298Z,16.39
2023-03-22T13:39:56.932Z,16.26
2023-03-22T13:42:40.955Z,16.04
2023-03-22T13:45:31.544Z,16.04
2023-03-22T13:48:16.257Z,16.08
2023-03-22T13:50:46.486Z,16.02
2023-03-22T13:53:23.201Z,15.97
2023-03-22T13:56:05.045Z,15.97
2023-03-22T13:58:49.752Z,15.93
2023-03-22T14:01:27.903Z,15.94
2023-03-22T14:04:02.016Z,16.17
2023-03-22T14:06:34.795Z,16.49
2023-03-22T14:09:12.017Z,16.47
2023-03-22T14:11:49.895Z,16.80
2023-03-22T14:14:25.727Z,16.77
2023-03-22T14:17:04.969Z,16.59
2023-03-22T14:19:37.668Z,16.51
